Time;durP1;ratioP1;P1;durP2;ratioP2;P2;SDS_P1;SDS_P2;PMS_P1;PMS_P2;Temp;Humidity;BMP_temperature;BMP_pressure;BME280_temperature;BME280_humidity;BME280_pressure;Samples;Min_cycle;Max_cycle;Signal;HPM_P1;HPM_P2
2022/01/11 00:00:31;;;;;;;;;;;;;;;18.68;60.24;100903.47;5129845;27;1919;-37
2022/01/11 00:02:58;;;;;;;;;;;;;;;18.79;59.91;100899.03;5130556;27;1765;-37
2022/01/11 00:05:28;;;;;;;;;;;;;;;18.80;60.50;100895.38;5127618;27;1904;-37
2022/01/11 00:07:55;;;;;;;;;;;;;;;18.70;59.53;100897.97;5134214;27;1699;-37
2022/01/11 00:10:27;;;;;;;;;;;;;;;18.73;59.62;100894.19;5130183;27;1724;-37
2022/01/11 00:12:54;;;;;;;;;;;;;;;18.67;60.21;100907.13;5130457;27;1980;-37
2022/01/11 00:15:20;;;;;;;;;;;;;;;18.73;60.21;100913.78;5135161;27;1694;-37
2022/01/11 00:17:47;;;;;;;;;;;;;;;18.72;59.85;100908.56;5136837;27;1456;-37
2022/01/11 00:20:17;;;;;;;;;;;;;;;18.67;59.97;100917.00;5135262;27;1504;-38
2022/01/11 00:24:27;;;;;;;;;;;;;;;18.67;59.79;100900.91;5135211;27;1569;-37
2022/01/11 00:25:37;;;;;;;;;;;;;;;18.64;60.31;100923.47;5130770;27;1692;-38
2022/01/11 00:28:04;;;;;;;;;;;;;;;18.64;60.06;100938.66;5139719;27;1380;-37
2022/01/11 00:30:33;;;;;;;;;;;;;;;18.60;59.66;100915.78;5138111;27;1861;-37
2022/01/11 00:33:02;;;;;;;;;;;;;;;18.61;59.98;100942.47;5134303;27;1902;-37
2022/01/11 00:35:38;;;;;;;;;;;;;;;18.61;59.34;100937.09;5131315;27;1858;-37
2022/01/11 00:38:05;;;;;;;;;;;;;;;18.57;59.20;100943.69;5127819;27;1606;-37
2022/01/11 00:40:32;;;;;;;;;;;;;;;18.55;59.19;100932.25;5133012;27;1506;-37
2022/01/11 00:43:00;;;;;;;;;;;;;;;18.56;59.33;100939.34;5129083;27;1474;-37
2022/01/11 00:45:27;;;;;;;;;;;;;;;18.55;59.45;100945.66;5126073;27;1747;-37
2022/01/11 00:47:53;;;;;;;;;;;;;;;18.57;59.54;100941.00;5135610;27;1615;-37
2022/01/11 00:50:20;;;;;;;;;;;;;;;18.65;59.45;100943.06;5125291;27;1956;-37
2022/01/11 00:52:46;;;;;;;;;;;;;;;18.62;58.52;100936.13;5127795;27;1906;-37
2022/01/11 00:55:13;;;;;;;;;;;;;;;18.72;58.37;100954.09;5138078;27;1905;-37
2022/01/11 00:57:39;;;;;;;;;;;;;;;18.63;58.51;100956.56;5129569;27;1756;-37
2022/01/11 01:00:11;;;;;;;;;;;;;;;18.62;58.57;100962.91;5116204;27;2003;-37
2022/01/11 01:02:38;;;;;;;;;;;;;;;18.62;58.96;100972.75;5130907;27;1557;-37
2022/01/11 01:05:05;;;;;;;;;;;;;;;18.66;58.84;100975.06;5127383;27;1755;-36
2022/01/11 01:07:31;;;;;;;;;;;;;;;18.60;59.42;100988.97;5133899;27;1793;-37
2022/01/11 01:10:02;;;;;;;;;;;;;;;18.62;59.22;100984.34;5131589;27;1451;-37
2022/01/11 01:12:29;;;;;;;;;;;;;;;18.59;59.42;100968.53;5131037;27;1967;-37
2022/01/11 01:14:55;;;;;;;;;;;;;;;18.58;59.14;100977.53;5131629;27;1738;-37
2022/01/11 01:17:23;;;;;;;;;;;;;;;18.62;59.04;100987.03;5135079;27;1896;-37
2022/01/11 01:19:50;;;;;;;;;;;;;;;18.62;58.83;100984.34;5125102;28;1554;-37
2022/01/11 01:22:16;;;;;;;;;;;;;;;18.60;59.13;100991.66;5132710;27;1896;-37
2022/01/11 01:24:43;;;;;;;;;;;;;;;18.64;58.07;100993.09;5132506;27;1615;-37
2022/01/11 01:27:09;;;;;;;;;;;;;;;18.66;58.60;101007.22;5128626;27;1483;-37
2022/01/11 01:29:38;;;;;;;;;;;;;;;18.65;58.83;101000.16;5131697;27;1445;-37
2022/01/11 01:32:05;;;;;;;;;;;;;;;18.67;58.16;100995.50;5139272;27;1906;-37
2022/01/11 01:34:33;;;;;;;;;;;;;;;18.62;59.26;100989.72;5117959;28;1522;-37
2022/01/11 01:36:59;;;;;;;;;;;;;;;18.62;58.42;100991.50;5138001;27;1598;-37
2022/01/11 01:39:26;;;;;;;;;;;;;;;18.59;58.97;101000.66;5134930;27;1539;-37
2022/01/11 01:41:53;;;;;;;;;;;;;;;18.55;59.38;100991.19;5131272;27;1728;-37
2022/01/11 01:44:19;;;;;;;;;;;;;;;18.56;58.67;100990.22;5134943;27;1980;-37
2022/01/11 01:46:46;;;;;;;;;;;;;;;18.55;58.70;100975.09;5137683;27;1534;-37
2022/01/11 01:49:17;;;;;;;;;;;;;;;18.57;59.22;100997.25;5130210;27;1558;-37
2022/01/11 01:51:45;;;;;;;;;;;;;;;18.60;58.79;101002.38;5131302;27;1507;-37
2022/01/11 01:54:12;;;;;;;;;;;;;;;18.58;58.40;100992.75;5139669;27;1964;-37
2022/01/11 01:56:39;;;;;;;;;;;;;;;18.60;58.84;100994.34;5140721;27;2062;-37
2022/01/11 01:59:05;;;;;;;;;;;;;;;18.59;58.11;101006.00;5138854;27;1669;-36
2022/01/11 02:01:35;;;;;;;;;;;;;;;18.57;58.33;101004.44;5126890;27;1536;-37
2022/01/11 02:04:01;;;;;;;;;;;;;;;18.58;58.10;101008.81;5138985;27;1640;-37
2022/01/11 02:06:28;;;;;;;;;;;;;;;18.59;58.42;101021.25;5132227;27;1925;-37
2022/01/11 02:08:56;;;;;;;;;;;;;;;18.59;58.70;101019.41;5124347;27;1629;-37
2022/01/11 02:11:24;;;;;;;;;;;;;;;18.60;57.88;101020.25;5138170;27;1755;-37
2022/01/11 02:13:51;;;;;;;;;;;;;;;18.62;57.81;101021.84;5131473;27;1976;-37
2022/01/11 02:16:21;;;;;;;;;;;;;;;18.58;58.26;101031.13;5137147;27;1459;-37
2022/01/11 02:18:48;;;;;;;;;;;;;;;18.58;57.89;101036.47;5134899;27;1387;-37
2022/01/11 02:21:16;;;;;;;;;;;;;;;18.56;58.44;101041.09;5130450;27;1461;-37
2022/01/11 02:23:42;;;;;;;;;;;;;;;18.58;58.42;101052.53;5127040;27;1853;-37
2022/01/11 02:26:09;;;;;;;;;;;;;;;18.60;57.81;101045.22;5134375;27;2257;-37
2022/01/11 02:28:35;;;;;;;;;;;;;;;18.59;58.39;101043.50;5140882;27;1918;-37
2022/01/11 02:31:07;;;;;;;;;;;;;;;18.52;58.55;101042.31;5132425;27;1614;-37
2022/01/11 02:33:34;;;;;;;;;;;;;;;18.55;58.01;101051.94;5134532;27;1983;-37
2022/01/11 02:36:01;;;;;;;;;;;;;;;18.56;58.27;101053.63;5132428;27;1587;-37
2022/01/11 02:38:29;;;;;;;;;;;;;;;18.55;57.65;101047.41;5133892;27;1746;-37
2022/01/11 02:40:57;;;;;;;;;;;;;;;18.52;58.18;101054.84;5131066;27;1872;-37
2022/01/11 02:43:24;;;;;;;;;;;;;;;18.58;57.57;101070.41;5133362;27;1554;-37
2022/01/11 02:45:50;;;;;;;;;;;;;;;18.59;57.70;101072.97;5133056;27;1555;-37
2022/01/11 02:48:17;;;;;;;;;;;;;;;18.55;58.00;101063.50;5139366;27;1927;-37
2022/01/11 02:50:44;;;;;;;;;;;;;;;18.49;57.88;101064.00;5127393;27;1793;-37
2022/01/11 02:53:11;;;;;;;;;;;;;;;18.51;58.18;101070.06;5132063;27;1902;-37
2022/01/11 02:55:40;;;;;;;;;;;;;;;18.56;57.55;101097.34;5136739;27;1558;-37
2022/01/11 02:58:06;;;;;;;;;;;;;;;18.60;57.58;101087.22;5134615;27;1639;-37
2022/01/11 03:03:12;;;;;;;;;;;;;;;18.53;57.88;101070.81;5022961;28;1528;-34
2022/01/11 03:05:47;;;;;;;;;;;;;;;18.51;58.03;101078.09;5022314;28;1906;-35
2022/01/11 03:08:14;;;;;;;;;;;;;;;18.53;57.38;101089.53;5023038;28;1923;-36
2022/01/11 03:10:45;;;;;;;;;;;;;;;18.54;58.00;101093.91;5029731;28;1539;-36
2022/01/11 03:13:20;;;;;;;;;;;;;;;18.47;57.71;101090.03;5030274;28;1906;-36
2022/01/11 03:15:48;;;;;;;;;;;;;;;18.48;57.38;101106.00;5021044;28;1784;-36
2022/01/11 03:18:15;;;;;;;;;;;;;;;18.53;58.19;101102.09;5023099;28;1587;-36
2022/01/11 03:20:45;;;;;;;;;;;;;;;18.51;57.53;101104.88;5027511;28;1547;-36
2022/01/11 03:23:14;;;;;;;;;;;;;;;18.48;57.30;101095.28;5027071;28;1582;-36
2022/01/11 03:25:46;;;;;;;;;;;;;;;18.49;57.60;101096.13;5024965;28;1568;-36
2022/01/11 03:28:15;;;;;;;;;;;;;;;18.46;57.66;101096.38;5025935;28;1946;-36
2022/01/11 03:30:44;;;;;;;;;;;;;;;18.49;57.39;101128.25;5031712;28;1525;-36
2022/01/11 03:33:14;;;;;;;;;;;;;;;18.52;57.44;101119.97;5022824;28;1906;-36
2022/01/11 03:35:49;;;;;;;;;;;;;;;18.53;57.17;101121.69;5017919;28;1890;-36
2022/01/11 03:38:16;;;;;;;;;;;;;;;18.53;57.23;101115.47;5028089;28;1862;-36
2022/01/11 03:40:51;;;;;;;;;;;;;;;18.53;57.23;101123.53;5028256;28;1935;-36
2022/01/11 03:43:22;;;;;;;;;;;;;;;18.53;56.67;101119.00;5020463;28;1797;-36
2022/01/11 03:45:50;;;;;;;;;;;;;;;18.55;57.06;101127.78;5026244;28;1790;-36
2022/01/11 03:48:17;;;;;;;;;;;;;;;18.48;57.45;101121.19;5025137;28;1768;-36
2022/01/11 03:50:51;;;;;;;;;;;;;;;18.53;56.96;101143.09;5022933;28;1603;-36
2022/01/11 03:53:19;;;;;;;;;;;;;;;18.46;58.17;101139.22;5019880;28;1972;-37
2022/01/11 03:58:35;;;;;;;;;;;;;;;18.38;58.13;101163.94;5018452;28;1933;-37
2022/01/11 04:01:03;;;;;;;;;;;;;;;18.35;58.84;101168.69;5021036;28;1493;-37
2022/01/11 04:03:38;;;;;;;;;;;;;;;18.35;58.74;101174.03;5027474;28;1861;-37
2022/01/11 04:06:07;;;;;;;;;;;;;;;18.37;58.96;101193.50;5030954;28;1911;-36
2022/01/11 04:08:36;;;;;;;;;;;;;;;18.44;58.59;101189.34;5027008;28;2081;-37
2022/01/11 04:11:05;;;;;;;;;;;;;;;18.50;58.30;101188.88;5019013;28;1569;-36
2022/01/11 04:13:34;;;;;;;;;;;;;;;18.61;57.95;101196.06;5025075;28;1996;-37
2022/01/11 04:16:03;;;;;;;;;;;;;;;18.74;57.81;101199.47;5020794;28;1544;-36
2022/01/11 04:18:30;;;;;;;;;;;;;;;18.87;57.60;101215.44;5032094;28;1997;-36
2022/01/11 04:20:57;;;;;;;;;;;;;;;18.86;57.83;101187.78;5017883;28;1652;-36
2022/01/11 04:23:26;;;;;;;;;;;;;;;18.94;57.55;101203.25;5028837;28;1847;-37
2022/01/11 04:25:54;;;;;;;;;;;;;;;19.02;57.74;101210.66;5028918;28;1904;-37
2022/01/11 04:28:27;;;;;;;;;;;;;;;19.04;57.55;101222.97;5032997;28;1757;-38
2022/01/11 04:33:42;;;;;;;;;;;;;;;19.09;57.33;101222.59;5023974;28;1906;-36
2022/01/11 04:36:18;;;;;;;;;;;;;;;19.06;58.18;101222.84;5025690;28;1603;-36
2022/01/11 04:38:48;;;;;;;;;;;;;;;19.04;58.23;101209.56;5024514;28;1906;-37
2022/01/11 04:41:16;;;;;;;;;;;;;;;19.09;58.15;101241.34;5027589;28;1506;-36
2022/01/11 04:43:54;;;;;;;;;;;;;;;19.12;58.23;101238.44;5023428;28;1429;-37
2022/01/11 04:46:21;;;;;;;;;;;;;;;19.12;57.89;101242.91;5028195;28;1876;-36
2022/01/11 04:48:52;;;;;;;;;;;;;;;19.11;58.12;101241.22;5023280;28;1549;-36
2022/01/11 04:51:20;;;;;;;;;;;;;;;19.13;57.65;101253.53;5025661;28;1561;-37
2022/01/11 04:53:47;;;;;;;;;;;;;;;19.05;58.51;101243.41;5019909;28;1980;-36
2022/01/11 04:56:14;;;;;;;;;;;;;;;19.04;58.01;101249.78;5024139;28;1654;-38
2022/01/11 04:58:47;;;;;;;;;;;;;;;19.07;58.46;101257.56;5015442;28;1780;-36
2022/01/11 05:01:15;;;;;;;;;;;;;;;19.09;57.50;101257.44;5015466;28;1752;-37
2022/01/11 05:03:44;;;;;;;;;;;;;;;19.05;58.03;101267.53;5022389;28;1484;-36
2022/01/11 05:06:10;;;;;;;;;;;;;;;19.10;57.71;101269.00;5026954;28;1692;-36
2022/01/11 05:08:37;;;;;;;;;;;;;;;19.03;58.17;101266.81;5031409;28;1734;-36
2022/01/11 05:11:07;;;;;;;;;;;;;;;19.03;58.26;101279.38;5025209;28;1438;-37
2022/01/11 05:13:36;;;;;;;;;;;;;;;19.02;58.31;101275.84;5028000;28;1910;-36
2022/01/11 05:16:03;;;;;;;;;;;;;;;18.99;57.90;101272.56;5021912;28;1741;-36
2022/01/11 05:18:36;;;;;;;;;;;;;;;19.01;58.00;101290.22;5022540;28;1769;-37
2022/01/11 05:21:03;;;;;;;;;;;;;;;19.03;57.79;101293.63;5018245;28;1415;-37
2022/01/11 05:23:30;;;;;;;;;;;;;;;19.01;57.92;101289.38;5026075;28;1442;-36
2022/01/11 05:25:57;;;;;;;;;;;;;;;18.99;58.00;101302.03;5029275;28;2382;-36
2022/01/11 05:28:24;;;;;;;;;;;;;;;18.93;58.74;101299.84;5031368;28;1610;-36
2022/01/11 05:30:51;;;;;;;;;;;;;;;18.93;58.47;101314.09;5032153;28;1582;-36
2022/01/11 05:33:22;;;;;;;;;;;;;;;18.88;58.30;101300.22;5027141;28;1965;-36
2022/01/11 05:35:52;;;;;;;;;;;;;;;18.86;58.85;101299.47;5020538;28;1864;-37
2022/01/11 05:38:26;;;;;;;;;;;;;;;18.90;58.40;101311.69;5025700;28;1945;-36
2022/01/11 05:40:57;;;;;;;;;;;;;;;18.91;59.22;101305.31;5027127;28;1854;-36
2022/01/11 05:43:24;;;;;;;;;;;;;;;18.90;59.14;101302.75;5021847;28;1781;-37
2022/01/11 05:45:52;;;;;;;;;;;;;;;18.92;58.54;101316.88;5030621;28;1504;-37
2022/01/11 05:48:20;;;;;;;;;;;;;;;18.87;58.50;101295.81;5031019;28;1842;-37
2022/01/11 05:50:48;;;;;;;;;;;;;;;18.89;58.82;101301.91;5029502;28;1835;-36
2022/01/11 05:53:18;;;;;;;;;;;;;;;18.88;58.81;101310.94;5027248;28;1880;-37
2022/01/11 05:55:46;;;;;;;;;;;;;;;18.89;58.58;101307.28;5031696;28;1886;-36
2022/01/11 05:58:13;;;;;;;;;;;;;;;18.89;59.21;101309.97;5030484;28;1609;-36
2022/01/11 06:00:41;;;;;;;;;;;;;;;18.88;58.35;101303.75;5031705;28;1693;-38
2022/01/11 06:03:09;;;;;;;;;;;;;;;18.87;58.57;101317.25;5020844;28;1906;-36
2022/01/11 06:05:38;;;;;;;;;;;;;;;18.87;58.40;101315.44;5027319;28;1674;-36
2022/01/11 06:08:07;;;;;;;;;;;;;;;18.86;58.48;101303.03;5032373;28;1548;-36
2022/01/11 06:10:39;;;;;;;;;;;;;;;18.86;59.02;101307.50;5034560;28;1614;-36
2022/01/11 06:13:09;;;;;;;;;;;;;;;18.84;58.68;101310.34;5021617;28;1584;-36
2022/01/11 06:15:38;;;;;;;;;;;;;;;18.81;58.89;101304.34;5023990;28;1987;-36
2022/01/11 06:18:05;;;;;;;;;;;;;;;18.81;58.96;101320.44;5030197;28;1784;-37
2022/01/11 06:20:33;;;;;;;;;;;;;;;18.88;58.79;101335.91;5028587;28;1554;-36
2022/01/11 06:23:02;;;;;;;;;;;;;;;18.90;59.14;101341.16;5030893;28;1727;-37
2022/01/11 06:25:28;;;;;;;;;;;;;;;18.95;58.61;101338.09;5029734;28;1787;-36
2022/01/11 06:27:58;;;;;;;;;;;;;;;18.97;58.10;101336.16;5028692;28;1621;-37
2022/01/11 06:30:25;;;;;;;;;;;;;;;18.99;59.09;101352.97;5026229;28;1842;-37
2022/01/11 06:32:55;;;;;;;;;;;;;;;19.08;58.96;101365.66;5025403;28;1818;-37
2022/01/11 06:35:23;;;;;;;;;;;;;;;19.06;58.58;101346.16;5021295;28;1910;-38
2022/01/11 06:37:51;;;;;;;;;;;;;;;19.03;59.11;101363.31;5020381;28;1390;-37
2022/01/11 06:40:26;;;;;;;;;;;;;;;19.05;58.64;101360.53;5027867;28;1612;-36
2022/01/11 06:42:56;;;;;;;;;;;;;;;19.04;58.89;101373.06;5029281;28;1716;-37
2022/01/11 06:45:34;;;;;;;;;;;;;;;19.01;59.33;101381.34;5028305;28;1458;-37
2022/01/11 06:48:01;;;;;;;;;;;;;;;18.98;58.50;101384.28;5030371;28;1917;-37
2022/01/11 06:50:29;;;;;;;;;;;;;;;19.02;59.41;101388.44;5023830;28;1889;-37
2022/01/11 06:52:58;;;;;;;;;;;;;;;18.96;59.25;101388.03;5028880;28;2031;-37
2022/01/11 06:55:25;;;;;;;;;;;;;;;18.89;59.27;101385.00;5026083;28;1991;-37
2022/01/11 06:57:53;;;;;;;;;;;;;;;18.91;59.55;101401.81;5025783;28;1747;-37
2022/01/11 07:00:20;;;;;;;;;;;;;;;18.94;59.23;101398.03;5023489;28;1966;-36
2022/01/11 07:02:51;;;;;;;;;;;;;;;18.93;58.85;101399.84;5029057;28;1507;-37
2022/01/11 07:05:18;;;;;;;;;;;;;;;18.94;58.64;101390.88;5024370;28;1696;-37
2022/01/11 07:07:46;;;;;;;;;;;;;;;18.94;59.75;101395.34;5031001;28;1690;-37
2022/01/11 07:10:13;;;;;;;;;;;;;;;19.06;58.86;101405.13;5029228;28;1952;-37
2022/01/11 07:12:40;;;;;;;;;;;;;;;18.99;59.28;101403.88;5027493;28;1744;-37
2022/01/11 07:15:08;;;;;;;;;;;;;;;18.97;59.52;101395.97;5030886;28;1975;-36
2022/01/11 07:17:36;;;;;;;;;;;;;;;18.95;60.40;101397.91;5028618;28;1888;-37
2022/01/11 07:20:07;;;;;;;;;;;;;;;19.09;59.43;101410.22;5026164;28;1587;-37
2022/01/11 07:22:36;;;;;;;;;;;;;;;19.10;59.57;101408.41;5028411;28;1780;-37
2022/01/11 07:25:03;;;;;;;;;;;;;;;19.11;59.18;101423.53;5025189;28;1796;-37
2022/01/11 07:27:34;;;;;;;;;;;;;;;19.11;60.11;101423.53;5024891;28;1923;-37
2022/01/11 07:30:03;;;;;;;;;;;;;;;19.21;59.81;101436.06;5022967;28;1635;-37
2022/01/11 07:32:31;;;;;;;;;;;;;;;19.12;60.18;101435.94;5027562;28;1964;-37
2022/01/11 07:34:59;;;;;;;;;;;;;;;19.17;60.64;101433.75;5030726;28;1967;-36
2022/01/11 07:37:33;;;;;;;;;;;;;;;19.14;60.34;101439.34;5031426;28;1689;-36
2022/01/11 07:39:59;;;;;;;;;;;;;;;19.05;60.08;101440.94;5025837;28;1945;-37
2022/01/11 07:42:29;;;;;;;;;;;;;;;19.09;61.13;101445.09;5024719;28;2064;-37
2022/01/11 07:44:56;;;;;;;;;;;;;;;19.11;60.80;101444.97;5025966;28;1705;-36
2022/01/11 07:47:23;;;;;;;;;;;;;;;19.31;59.24;101463.03;5029379;28;1811;-36
2022/01/11 07:49:51;;;;;;;;;;;;;;;19.33;59.29;101450.34;5028950;28;1943;-36
2022/01/11 07:52:22;;;;;;;;;;;;;;;19.32;60.18;101454.03;5025584;28;1959;-37
2022/01/11 07:54:54;;;;;;;;;;;;;;;19.41;59.51;101464.00;5027828;28;1977;-36
2022/01/11 07:57:21;;;;;;;;;;;;;;;19.34;59.52;101462.78;5029562;28;1818;-36
2022/01/11 07:59:51;;;;;;;;;;;;;;;19.28;59.90;101464.13;5028700;28;1585;-36
2022/01/11 08:02:18;;;;;;;;;;;;;;;19.20;59.59;101463.00;5025219;28;1704;-36
2022/01/11 08:04:45;;;;;;;;;;;;;;;19.22;59.67;101474.50;5031756;28;1843;-37
2022/01/11 08:07:15;;;;;;;;;;;;;;;19.11;60.28;101471.78;5026594;28;1787;-36
2022/01/11 08:09:56;;;;;;;;;;;;;;;19.08;60.74;101489.81;5031589;28;1589;-36
2022/01/11 08:12:28;;;;;;;;;;;;;;;19.03;60.92;101488.44;5023705;28;1788;-36
2022/01/11 08:14:55;;;;;;;;;;;;;;;18.98;60.15;101478.09;5029068;28;1917;-36
2022/01/11 08:17:24;;;;;;;;;;;;;;;18.99;60.41;101476.25;5030286;28;1673;-35
2022/01/11 08:19:51;;;;;;;;;;;;;;;18.97;61.13;101488.94;5024890;28;1873;-36
2022/01/11 08:22:17;;;;;;;;;;;;;;;18.94;61.49;101507.91;5028822;28;1858;-36
2022/01/11 08:24:48;;;;;;;;;;;;;;;18.91;60.80;101498.28;5024970;28;1971;-36
2022/01/11 08:27:19;;;;;;;;;;;;;;;18.92;60.92;101515.22;5020529;28;2004;-36
2022/01/11 08:29:49;;;;;;;;;;;;;;;18.94;61.54;101511.47;5026422;28;1456;-36
2022/01/11 08:32:15;;;;;;;;;;;;;;;18.87;61.38;101513.75;5024458;28;1560;-36
2022/01/11 08:34:44;;;;;;;;;;;;;;;19.01;61.40;101515.38;5022804;28;1902;-36
2022/01/11 08:37:14;;;;;;;;;;;;;;;19.04;61.19;101498.22;5022370;28;1784;-36
2022/01/11 08:39:43;;;;;;;;;;;;;;;19.01;60.51;101517.19;5021410;28;1595;-35
2022/01/11 08:42:20;;;;;;;;;;;;;;;18.99;61.10;101516.47;5025137;28;1593;-36
2022/01/11 08:44:50;;;;;;;;;;;;;;;18.92;61.01;101520.56;5029897;28;2055;-36
2022/01/11 08:47:30;;;;;;;;;;;;;;;18.87;61.05;101523.63;5025846;28;1632;-35
2022/01/11 08:49:57;;;;;;;;;;;;;;;18.93;61.55;101512.41;5024692;28;1798;-35
2022/01/11 08:52:25;;;;;;;;;;;;;;;18.90;61.59;101512.66;5023934;28;1913;-35
2022/01/11 08:54:55;;;;;;;;;;;;;;;18.91;61.46;101506.31;5029441;28;1906;-36
2022/01/11 08:57:24;;;;;;;;;;;;;;;18.90;61.65;101515.34;5029787;28;1535;-35
2022/01/11 08:59:51;;;;;;;;;;;;;;;18.89;64.62;101510.94;5027639;28;1727;-35
2022/01/11 09:02:22;;;;;;;;;;;;;;;18.96;66.77;101500.59;5027367;28;1621;-35
2022/01/11 09:04:52;;;;;;;;;;;;;;;18.95;68.29;101504.28;5020125;28;1827;-36
2022/01/11 09:07:21;;;;;;;;;;;;;;;18.87;69.99;101502.19;5029255;28;1669;-36
2022/01/11 09:09:51;;;;;;;;;;;;;;;18.80;69.14;101506.28;5023634;28;1721;-35
2022/01/11 09:12:20;;;;;;;;;;;;;;;18.80;69.70;101488.41;5019537;28;1575;-36
2022/01/11 09:14:50;;;;;;;;;;;;;;;18.98;68.31;101499.53;5025810;28;1977;-35
2022/01/11 09:17:31;;;;;;;;;;;;;;;19.05;66.70;101508.81;5029567;28;1816;-35
2022/01/11 09:19:58;;;;;;;;;;;;;;;19.13;65.71;101515.41;5032962;28;1646;-35
2022/01/11 09:22:25;;;;;;;;;;;;;;;19.14;65.68;101488.50;5020739;28;1548;-35
2022/01/11 09:24:52;;;;;;;;;;;;;;;19.03;66.00;101496.50;5029065;28;1981;-35
2022/01/11 09:27:22;;;;;;;;;;;;;;;18.96;66.00;101493.44;5026498;28;1516;-35
2022/01/11 09:29:49;;;;;;;;;;;;;;;18.94;65.21;101497.19;5025451;28;1721;-36
2022/01/11 09:32:16;;;;;;;;;;;;;;;18.88;64.80;101493.19;5020174;28;1695;-34
2022/01/11 09:34:45;;;;;;;;;;;;;;;18.94;64.47;101503.44;5028302;28;1910;-35
2022/01/11 09:37:12;;;;;;;;;;;;;;;18.97;64.21;101488.94;5022183;28;2034;-35
2022/01/11 09:39:42;;;;;;;;;;;;;;;18.91;63.35;101503.66;5025819;28;1846;-35
2022/01/11 09:42:08;;;;;;;;;;;;;;;18.95;62.30;101504.28;5029758;28;1895;-36
2022/01/11 09:44:38;;;;;;;;;;;;;;;18.85;63.08;101504.13;5014730;28;1785;-35
2022/01/11 09:47:11;;;;;;;;;;;;;;;18.45;63.92;101507.09;5016497;28;1857;-35
2022/01/11 09:49:39;;;;;;;;;;;;;;;18.24;64.29;101515.75;5023359;28;1601;-35
2022/01/11 09:52:10;;;;;;;;;;;;;;;18.25;64.45;101528.13;5021598;28;1599;-35
2022/01/11 09:54:41;;;;;;;;;;;;;;;18.24;64.87;101537.16;5021389;28;1781;-35
2022/01/11 09:57:10;;;;;;;;;;;;;;;18.16;65.26;101517.25;5028705;28;1691;-35
2022/01/11 09:59:45;;;;;;;;;;;;;;;18.12;65.55;101521.13;5028671;28;1582;-35
2022/01/11 10:02:15;;;;;;;;;;;;;;;18.13;65.63;101521.00;5024197;28;1665;-34
2022/01/11 10:04:44;;;;;;;;;;;;;;;18.08;65.98;101548.13;5023884;28;1570;-36
2022/01/11 10:07:16;;;;;;;;;;;;;;;18.37;65.54;101536.25;5021918;28;1783;-36
2022/01/11 10:09:45;;;;;;;;;;;;;;;18.37;65.55;101530.91;5020993;28;1486;-35
2022/01/11 10:12:18;;;;;;;;;;;;;;;18.44;65.76;101532.13;5022711;28;1938;-36
2022/01/11 10:14:46;;;;;;;;;;;;;;;18.61;65.58;101534.44;5021623;28;1741;-35
2022/01/11 10:17:17;;;;;;;;;;;;;;;18.61;65.90;101528.22;5031609;28;1593;-36
2022/01/11 10:19:45;;;;;;;;;;;;;;;18.81;65.46;101542.84;5021779;28;1978;-35
2022/01/11 10:22:20;;;;;;;;;;;;;;;18.86;65.86;101548.69;5031636;28;1759;-35
2022/01/11 10:24:48;;;;;;;;;;;;;;;18.84;65.17;101534.53;5030307;28;1512;-36
2022/01/11 10:27:30;;;;;;;;;;;;;;;18.88;64.61;101536.06;5030047;28;1708;-35
2022/01/11 10:30:00;;;;;;;;;;;;;;;18.96;64.63;101548.84;5025414;28;1847;-35
2022/01/11 10:32:41;;;;;;;;;;;;;;;18.99;64.45;101554.84;5027165;28;1700;-35
2022/01/11 10:35:11;;;;;;;;;;;;;;;19.09;63.86;101549.63;5027124;28;1977;-36
2022/01/11 10:37:44;;;;;;;;;;;;;;;19.08;64.60;101548.78;5030590;28;1793;-35
2022/01/11 10:40:18;;;;;;;;;;;;;;;19.11;64.27;101552.22;5023261;28;1959;-35
2022/01/11 10:42:49;;;;;;;;;;;;;;;19.15;64.74;101542.97;5030810;28;2080;-36
2022/01/11 10:45:45;;;;;;;;;;;;;;;19.30;63.84;101536.41;5020238;28;1816;-37
2022/01/11 10:48:15;;;;;;;;;;;;;;;19.23;64.85;101538.69;5026673;28;1815;-36
2022/01/11 10:50:45;;;;;;;;;;;;;;;19.40;64.11;101529.38;5027267;28;1906;-35
2022/01/11 10:53:16;;;;;;;;;;;;;;;19.43;64.89;101533.63;5024172;28;1932;-36
2022/01/11 10:55:45;;;;;;;;;;;;;;;19.42;64.89;101537.28;5025359;28;2291;-36
2022/01/11 10:58:16;;;;;;;;;;;;;;;19.34;64.85;101528.97;5025942;28;1507;-35
2022/01/11 11:00:43;;;;;;;;;;;;;;;19.39;63.58;101538.38;5028034;28;1749;-36
2022/01/11 11:03:14;;;;;;;;;;;;;;;19.38;63.64;101533.16;5027066;28;1771;-37
2022/01/11 11:05:47;;;;;;;;;;;;;;;19.42;63.57;101535.47;5032095;28;1971;-36
2022/01/11 11:08:17;;;;;;;;;;;;;;;19.36;63.75;101538.63;5031130;28;1811;-35
2022/01/11 11:10:59;;;;;;;;;;;;;;;19.25;64.44;101527.88;5024041;28;1541;-35
2022/01/11 11:13:27;;;;;;;;;;;;;;;19.23;63.74;101530.66;5027562;28;1640;-35
2022/01/11 11:16:16;;;;;;;;;;;;;;;19.20;64.23;101532.72;5021211;28;1906;-35
2022/01/11 11:18:44;;;;;;;;;;;;;;;19.11;65.01;101536.13;5021170;28;1536;-36
2022/01/11 11:21:17;;;;;;;;;;;;;;;19.08;64.97;101548.78;5029416;28;1684;-36
2022/01/11 11:23:49;;;;;;;;;;;;;;;19.08;64.68;101558.66;5020417;28;1915;-37
2022/01/11 11:26:20;;;;;;;;;;;;;;;18.98;65.27;101557.63;5032044;28;1876;-37
2022/01/11 11:28:49;;;;;;;;;;;;;;;19.01;65.18;101563.63;5025504;28;1774;-37
2022/01/11 11:31:19;;;;;;;;;;;;;;;18.89;64.65;101567.22;5026168;28;1711;-37
2022/01/11 11:33:50;;;;;;;;;;;;;;;18.95;65.56;101569.44;5029808;28;1600;-37
2022/01/11 11:36:17;;;;;;;;;;;;;;;18.90;64.57;101566.28;5025551;28;1974;-36
2022/01/11 11:38:53;;;;;;;;;;;;;;;18.82;65.58;101563.28;5031193;28;1791;-36
2022/01/11 11:41:21;;;;;;;;;;;;;;;18.92;64.40;101575.06;5018894;28;1721;-36
2022/01/11 11:44:05;;;;;;;;;;;;;;;18.73;65.00;101558.59;5027067;28;1653;-36
2022/01/11 11:46:47;;;;;;;;;;;;;;;18.69;64.61;101582.09;5031226;28;1953;-36
2022/01/11 11:49:15;;;;;;;;;;;;;;;18.69;65.18;101577.56;5024738;28;1872;-36
2022/01/11 11:51:50;;;;;;;;;;;;;;;18.83;64.60;101565.84;5024518;28;1858;-36
2022/01/11 11:54:30;;;;;;;;;;;;;;;18.72;64.99;101578.31;5026046;28;1828;-37
2022/01/11 11:57:04;;;;;;;;;;;;;;;18.74;64.16;101576.38;5024246;28;1926;-36
2022/01/11 11:59:44;;;;;;;;;;;;;;;18.80;64.54;101576.81;5025056;28;1686;-36
2022/01/11 12:02:19;;;;;;;;;;;;;;;18.81;63.71;101570.47;5029360;28;1849;-36
2022/01/11 12:04:54;;;;;;;;;;;;;;;18.85;64.86;101581.81;5028963;28;1845;-36
2022/01/11 12:07:29;;;;;;;;;;;;;;;18.87;63.82;101596.81;5020930;28;1976;-36
2022/01/11 12:10:02;;;;;;;;;;;;;;;18.99;63.38;101589.69;5030710;28;1548;-37
2022/01/11 12:12:42;;;;;;;;;;;;;;;19.20;63.65;101594.38;5029724;28;1755;-37
2022/01/11 12:15:31;;;;;;;;;;;;;;;19.16;63.36;101592.91;5028921;28;1957;-37
2022/01/11 12:18:20;;;;;;;;;;;;;;;19.29;62.18;101588.34;5027669;28;1780;-36
2022/01/11 12:20:50;;;;;;;;;;;;;;;19.12;63.17;101586.94;5028868;28;1949;-36
2022/01/11 12:23:21;;;;;;;;;;;;;;;19.16;62.24;101592.91;5027678;28;1899;-35
2022/01/11 12:26:07;;;;;;;;;;;;;;;18.78;62.13;101592.13;5020733;28;1794;-36
2022/01/11 12:28:43;;;;;;;;;;;;;;;18.78;63.20;101593.94;5024161;28;1955;-35
2022/01/11 12:31:28;;;;;;;;;;;;;;;18.99;62.36;101596.88;5026930;28;1845;-37
2022/01/11 12:33:55;;;;;;;;;;;;;;;19.04;62.30;101600.94;5020064;28;1805;-36
2022/01/11 12:36:22;;;;;;;;;;;;;;;19.04;61.97;101617.00;5028706;28;1914;-36
2022/01/11 12:42:00;;;;;;;;;;;;;;;19.40;62.05;101627.75;5025225;28;2135;-36
2022/01/11 12:44:33;;;;;;;;;;;;;;;19.53;61.83;101639.22;5026732;28;1792;-36
2022/01/11 12:47:01;;;;;;;;;;;;;;;19.68;63.11;101642.59;5031288;28;1961;-36
2022/01/11 12:49:32;;;;;;;;;;;;;;;19.58;62.63;101633.53;5032072;28;1826;-35
2022/01/11 12:52:09;;;;;;;;;;;;;;;19.61;62.57;101650.22;5028465;28;1925;-35
2022/01/11 12:54:48;;;;;;;;;;;;;;;19.69;63.17;101638.91;5021931;28;1877;-35
2022/01/11 12:57:22;;;;;;;;;;;;;;;19.73;62.53;101659.19;5023457;28;1918;-35
2022/01/11 12:59:50;;;;;;;;;;;;;;;19.93;62.85;101651.44;5021286;28;1742;-35
2022/01/11 13:02:23;;;;;;;;;;;;;;;19.93;62.54;101663.00;5020518;28;1961;-35
2022/01/11 13:04:54;;;;;;;;;;;;;;;19.94;62.14;101639.72;5024003;28;1776;-35
2022/01/11 13:07:27;;;;;;;;;;;;;;;20.00;62.12;101650.00;5024935;28;1740;-35
2022/01/11 13:10:05;;;;;;;;;;;;;;;20.16;61.87;101641.56;5020215;28;1868;-35
2022/01/11 13:12:35;;;;;;;;;;;;;;;20.25;61.43;101654.25;5027988;28;1711;-35